sensor_id;sensor_type;location;lat;lon;timestamp;P1;durP1;ratioP1;P2;durP2;ratioP2
80115;SDS011;69423;47.608;19.366;2023-06-14T00:00:03;13.03;;;12.13;;
80115;SDS011;69423;47.608;19.366;2023-06-14T00:00:36;12.93;;;12.10;;
80115;SDS011;69423;47.608;19.366;2023-06-14T00:01:11;12.60;;;11.80;;
80115;SDS011;69423;47.608;19.366;2023-06-14T00:01:44;12.60;;;11.80;;
80115;SDS011;69423;47.608;19.366;2023-06-14T00:02:16;12.97;;;12.17;;
80115;SDS011;69423;47.608;19.366;2023-06-14T00:02:47;12.40;;;11.60;;
80115;SDS011;69423;47.608;19.366;2023-06-14T00:03:18;12.77;;;11.90;;
80115;SDS011;69423;47.608;19.366;2023-06-14T00:03:50;13.23;;;12.23;;
80115;SDS011;69423;47.608;19.366;2023-06-14T00:04:21;13.20;;;12.43;;
80115;SDS011;69423;47.608;19.366;2023-06-14T00:04:55;12.03;;;11.50;;
80115;SDS011;69423;47.608;19.366;2023-06-14T00:05:27;12.07;;;11.47;;
80115;SDS011;69423;47.608;19.366;2023-06-14T00:05:59;11.97;;;11.30;;
80115;SDS011;69423;47.608;19.366;2023-06-14T00:06:30;13.83;;;12.97;;
80115;SDS011;69423;47.608;19.366;2023-06-14T00:07:01;13.43;;;12.57;;
80115;SDS011;69423;47.608;19.366;2023-06-14T00:07:33;12.90;;;12.13;;
80115;SDS011;69423;47.608;19.366;2023-06-14T00:08:13;13.63;;;12.90;;
80115;SDS011;69423;47.608;19.366;2023-06-14T00:08:45;12.97;;;12.27;;
80115;SDS011;69423;47.608;19.366;2023-06-14T00:09:16;12.50;;;11.90;;
80115;SDS011;69423;47.608;19.366;2023-06-14T00:09:50;13.10;;;12.37;;
80115;SDS011;69423;47.608;19.366;2023-06-14T00:10:21;12.80;;;12.10;;
80115;SDS011;69423;47.608;19.366;2023-06-14T00:10:52;12.90;;;12.27;;
80115;SDS011;69423;47.608;19.366;2023-06-14T00:11:24;12.63;;;12.13;;
80115;SDS011;69423;47.608;19.366;2023-06-14T00:11:57;13.17;;;12.63;;
80115;SDS011;69423;47.608;19.366;2023-06-14T00:12:28;13.13;;;12.43;;
80115;SDS011;69423;47.608;19.366;2023-06-14T00:12:59;13.03;;;12.27;;
80115;SDS011;69423;47.608;19.366;2023-06-14T00:13:31;12.97;;;12.30;;
80115;SDS011;69423;47.608;19.366;2023-06-14T00:14:02;12.60;;;12.00;;
80115;SDS011;69423;47.608;19.366;2023-06-14T00:14:34;12.13;;;11.50;;
80115;SDS011;69423;47.608;19.366;2023-06-14T00:15:05;11.90;;;11.33;;
80115;SDS011;69423;47.608;19.366;2023-06-14T00:15:37;12.70;;;12.13;;
80115;SDS011;69423;47.608;19.366;2023-06-14T00:16:09;12.47;;;11.93;;
80115;SDS011;69423;47.608;19.366;2023-06-14T00:16:40;12.87;;;12.20;;
80115;SDS011;69423;47.608;19.366;2023-06-14T00:17:12;13.03;;;12.30;;
80115;SDS011;69423;47.608;19.366;2023-06-14T00:17:47;13.67;;;13.00;;
80115;SDS011;69423;47.608;19.366;2023-06-14T00:18:18;12.67;;;12.13;;
80115;SDS011;69423;47.608;19.366;2023-06-14T00:18:49;12.13;;;11.63;;
80115;SDS011;69423;47.608;19.366;2023-06-14T00:19:22;12.33;;;11.80;;
80115;SDS011;69423;47.608;19.366;2023-06-14T00:19:53;12.57;;;11.97;;
80115;SDS011;69423;47.608;19.366;2023-06-14T00:20:24;12.43;;;11.77;;
80115;SDS011;69423;47.608;19.366;2023-06-14T00:20:56;12.70;;;11.97;;
80115;SDS011;69423;47.608;19.366;2023-06-14T00:21:27;13.00;;;12.30;;
80115;SDS011;69423;47.608;19.366;2023-06-14T00:22:00;12.83;;;12.17;;
80115;SDS011;69423;47.608;19.366;2023-06-14T00:22:31;12.83;;;12.17;;
80115;SDS011;69423;47.608;19.366;2023-06-14T00:23:03;12.17;;;11.50;;
80115;SDS011;69423;47.608;19.366;2023-06-14T00:23:34;12.53;;;11.87;;
80115;SDS011;69423;47.608;19.366;2023-06-14T00:24:05;12.73;;;12.03;;
80115;SDS011;69423;47.608;19.366;2023-06-14T00:24:37;12.80;;;12.17;;
80115;SDS011;69423;47.608;19.366;2023-06-14T00:25:08;12.67;;;11.93;;
80115;SDS011;69423;47.608;19.366;2023-06-14T00:25:40;13.47;;;12.57;;
80115;SDS011;69423;47.608;19.366;2023-06-14T00:26:11;13.37;;;12.43;;
80115;SDS011;69423;47.608;19.366;2023-06-14T00:26:42;13.10;;;12.23;;
80115;SDS011;69423;47.608;19.366;2023-06-14T00:27:13;13.23;;;12.50;;
80115;SDS011;69423;47.608;19.366;2023-06-14T00:27:44;13.37;;;12.60;;
80115;SDS011;69423;47.608;19.366;2023-06-14T00:28:15;12.83;;;12.07;;
80115;SDS011;69423;47.608;19.366;2023-06-14T00:28:46;13.87;;;13.00;;
80115;SDS011;69423;47.608;19.366;2023-06-14T00:29:17;14.07;;;13.17;;
80115;SDS011;69423;47.608;19.366;2023-06-14T00:29:48;13.73;;;12.80;;
80115;SDS011;69423;47.608;19.366;2023-06-14T00:30:19;13.00;;;12.07;;
80115;SDS011;69423;47.608;19.366;2023-06-14T00:30:51;12.83;;;11.97;;
80115;SDS011;69423;47.608;19.366;2023-06-14T00:31:25;13.17;;;12.30;;
80115;SDS011;69423;47.608;19.366;2023-06-14T00:31:56;13.97;;;13.13;;
80115;SDS011;69423;47.608;19.366;2023-06-14T00:32:27;13.90;;;13.20;;
80115;SDS011;69423;47.608;19.366;2023-06-14T00:32:58;13.40;;;12.70;;
80115;SDS011;69423;47.608;19.366;2023-06-14T00:33:30;13.13;;;12.30;;
80115;SDS011;69423;47.608;19.366;2023-06-14T00:34:01;13.27;;;12.37;;
80115;SDS011;69423;47.608;19.366;2023-06-14T00:34:32;13.77;;;12.90;;
80115;SDS011;69423;47.608;19.366;2023-06-14T00:35:03;13.90;;;12.90;;
80115;SDS011;69423;47.608;19.366;2023-06-14T00:35:34;13.30;;;12.47;;
80115;SDS011;69423;47.608;19.366;2023-06-14T00:36:05;13.37;;;12.67;;
80115;SDS011;69423;47.608;19.366;2023-06-14T00:36:36;13.83;;;13.03;;
80115;SDS011;69423;47.608;19.366;2023-06-14T00:37:07;13.17;;;12.43;;
80115;SDS011;69423;47.608;19.366;2023-06-14T00:37:38;14.40;;;13.67;;
80115;SDS011;69423;47.608;19.366;2023-06-14T00:38:09;13.87;;;13.17;;
80115;SDS011;69423;47.608;19.366;2023-06-14T00:38:40;13.13;;;12.53;;
80115;SDS011;69423;47.608;19.366;2023-06-14T00:39:11;13.57;;;12.87;;
80115;SDS011;69423;47.608;19.366;2023-06-14T00:39:42;13.10;;;12.23;;
80115;SDS011;69423;47.608;19.366;2023-06-14T00:40:14;13.97;;;13.00;;
80115;SDS011;69423;47.608;19.366;2023-06-14T00:40:45;13.93;;;13.07;;
80115;SDS011;69423;47.608;19.366;2023-06-14T00:41:16;13.57;;;12.80;;
80115;SDS011;69423;47.608;19.366;2023-06-14T00:41:47;13.50;;;12.70;;
80115;SDS011;69423;47.608;19.366;2023-06-14T00:42:27;14.13;;;13.30;;
80115;SDS011;69423;47.608;19.366;2023-06-14T00:42:58;14.77;;;13.77;;
80115;SDS011;69423;47.608;19.366;2023-06-14T00:43:30;13.93;;;13.00;;
80115;SDS011;69423;47.608;19.366;2023-06-14T00:44:01;13.67;;;12.87;;
80115;SDS011;69423;47.608;19.366;2023-06-14T00:44:32;13.80;;;13.00;;
80115;SDS011;69423;47.608;19.366;2023-06-14T00:45:03;13.43;;;12.53;;
80115;SDS011;69423;47.608;19.366;2023-06-14T00:45:34;14.00;;;12.93;;
80115;SDS011;69423;47.608;19.366;2023-06-14T00:46:06;13.93;;;12.93;;
80115;SDS011;69423;47.608;19.366;2023-06-14T00:46:37;14.00;;;13.17;;
80115;SDS011;69423;47.608;19.366;2023-06-14T00:47:08;13.67;;;12.87;;
80115;SDS011;69423;47.608;19.366;2023-06-14T00:47:40;14.00;;;13.07;;
80115;SDS011;69423;47.608;19.366;2023-06-14T00:48:13;13.63;;;12.83;;
80115;SDS011;69423;47.608;19.366;2023-06-14T00:48:45;13.60;;;13.00;;
80115;SDS011;69423;47.608;19.366;2023-06-14T00:49:17;13.50;;;12.93;;
80115;SDS011;69423;47.608;19.366;2023-06-14T00:49:50;13.43;;;12.87;;
80115;SDS011;69423;47.608;19.366;2023-06-14T00:50:23;13.33;;;12.87;;
80115;SDS011;69423;47.608;19.366;2023-06-14T00:50:55;13.97;;;13.20;;
80115;SDS011;69423;47.608;19.366;2023-06-14T00:51:26;13.67;;;12.67;;
80115;SDS011;69423;47.608;19.366;2023-06-14T00:51:58;13.70;;;12.63;;
80115;SDS011;69423;47.608;19.366;2023-06-14T00:52:29;13.77;;;12.73;;
80115;SDS011;69423;47.608;19.366;2023-06-14T00:53:00;13.53;;;12.63;;
80115;SDS011;69423;47.608;19.366;2023-06-14T00:53:31;13.83;;;12.93;;
80115;SDS011;69423;47.608;19.366;2023-06-14T00:54:06;13.97;;;13.07;;
80115;SDS011;69423;47.608;19.366;2023-06-14T00:54:37;13.83;;;12.83;;
80115;SDS011;69423;47.608;19.366;2023-06-14T00:55:08;14.63;;;13.47;;
80115;SDS011;69423;47.608;19.366;2023-06-14T00:55:40;14.93;;;13.77;;
80115;SDS011;69423;47.608;19.366;2023-06-14T00:56:11;13.80;;;12.80;;
80115;SDS011;69423;47.608;19.366;2023-06-14T00:56:44;13.77;;;13.00;;
80115;SDS011;69423;47.608;19.366;2023-06-14T00:57:15;13.83;;;13.13;;
80115;SDS011;69423;47.608;19.366;2023-06-14T00:57:47;13.80;;;13.07;;
80115;SDS011;69423;47.608;19.366;2023-06-14T00:58:19;13.57;;;12.97;;
80115;SDS011;69423;47.608;19.366;2023-06-14T00:58:53;13.57;;;13.07;;
80115;SDS011;69423;47.608;19.366;2023-06-14T00:59:24;14.23;;;13.70;;
80115;SDS011;69423;47.608;19.366;2023-06-14T00:59:55;13.97;;;13.37;;
80115;SDS011;69423;47.608;19.366;2023-06-14T01:00:27;13.57;;;12.80;;
80115;SDS011;69423;47.608;19.366;2023-06-14T01:00:59;13.57;;;12.77;;
80115;SDS011;69423;47.608;19.366;2023-06-14T01:01:30;13.40;;;12.70;;
80115;SDS011;69423;47.608;19.366;2023-06-14T01:02:04;13.33;;;12.60;;
80115;SDS011;69423;47.608;19.366;2023-06-14T01:02:36;14.50;;;13.57;;
80115;SDS011;69423;47.608;19.366;2023-06-14T01:03:08;14.43;;;13.37;;
80115;SDS011;69423;47.608;19.366;2023-06-14T01:03:43;14.80;;;13.80;;
80115;SDS011;69423;47.608;19.366;2023-06-14T01:04:14;13.93;;;13.20;;
80115;SDS011;69423;47.608;19.366;2023-06-14T01:04:46;13.70;;;13.10;;
80115;SDS011;69423;47.608;19.366;2023-06-14T01:05:19;13.93;;;13.37;;
80115;SDS011;69423;47.608;19.366;2023-06-14T01:05:51;13.90;;;13.27;;
80115;SDS011;69423;47.608;19.366;2023-06-14T01:07:18;14.07;;;13.43;;
80115;SDS011;69423;47.608;19.366;2023-06-14T01:08:51;13.47;;;12.83;;
80115;SDS011;69423;47.608;19.366;2023-06-14T01:10:17;13.07;;;12.37;;
80115;SDS011;69423;47.608;19.366;2023-06-14T01:11:13;14.00;;;13.30;;
80115;SDS011;69423;47.608;19.366;2023-06-14T01:11:54;13.90;;;13.17;;
80115;SDS011;69423;47.608;19.366;2023-06-14T01:12:37;14.60;;;13.70;;
80115;SDS011;69423;47.608;19.366;2023-06-14T01:13:28;13.47;;;12.93;;
80115;SDS011;69423;47.608;19.366;2023-06-14T01:14:13;13.87;;;13.20;;
80115;SDS011;69423;47.608;19.366;2023-06-14T01:14:47;13.50;;;12.83;;
80115;SDS011;69423;47.608;19.366;2023-06-14T01:15:20;13.87;;;13.13;;
80115;SDS011;69423;47.608;19.366;2023-06-14T01:15:52;14.37;;;13.47;;
80115;SDS011;69423;47.608;19.366;2023-06-14T01:16:24;14.43;;;13.60;;
80115;SDS011;69423;47.608;19.366;2023-06-14T01:16:56;14.20;;;13.47;;
80115;SDS011;69423;47.608;19.366;2023-06-14T01:17:31;13.97;;;13.30;;
80115;SDS011;69423;47.608;19.366;2023-06-14T01:18:04;14.50;;;13.57;;
80115;SDS011;69423;47.608;19.366;2023-06-14T01:18:35;13.67;;;12.77;;
80115;SDS011;69423;47.608;19.366;2023-06-14T01:19:07;13.83;;;13.20;;
80115;SDS011;69423;47.608;19.366;2023-06-14T01:19:44;13.23;;;12.70;;
80115;SDS011;69423;47.608;19.366;2023-06-14T01:20:16;13.67;;;13.07;;
80115;SDS011;69423;47.608;19.366;2023-06-14T01:20:48;13.67;;;12.90;;
80115;SDS011;69423;47.608;19.366;2023-06-14T01:21:22;14.33;;;13.47;;
80115;SDS011;69423;47.608;19.366;2023-06-14T01:21:55;14.30;;;13.50;;
80115;SDS011;69423;47.608;19.366;2023-06-14T01:22:27;14.57;;;13.57;;
80115;SDS011;69423;47.608;19.366;2023-06-14T01:22:59;13.77;;;12.87;;
80115;SDS011;69423;47.608;19.366;2023-06-14T01:23:30;14.33;;;13.50;;
80115;SDS011;69423;47.608;19.366;2023-06-14T01:24:03;14.47;;;13.83;;
80115;SDS011;69423;47.608;19.366;2023-06-14T01:24:34;13.33;;;12.83;;
80115;SDS011;69423;47.608;19.366;2023-06-14T01:25:06;13.47;;;12.93;;
80115;SDS011;69423;47.608;19.366;2023-06-14T01:25:37;13.50;;;12.83;;
80115;SDS011;69423;47.608;19.366;2023-06-14T01:26:09;13.73;;;12.93;;
80115;SDS011;69423;47.608;19.366;2023-06-14T01:26:40;14.17;;;13.17;;
80115;SDS011;69423;47.608;19.366;2023-06-14T01:27:16;14.93;;;13.87;;
80115;SDS011;69423;47.608;19.366;2023-06-14T01:27:49;14.40;;;13.50;;
80115;SDS011;69423;47.608;19.366;2023-06-14T01:28:28;13.53;;;12.77;;
80115;SDS011;69423;47.608;19.366;2023-06-14T01:29:02;13.70;;;13.07;;
80115;SDS011;69423;47.608;19.366;2023-06-14T01:29:34;14.20;;;13.43;;
80115;SDS011;69423;47.608;19.366;2023-06-14T01:30:07;14.83;;;13.87;;
80115;SDS011;69423;47.608;19.366;2023-06-14T01:30:41;14.80;;;13.77;;
80115;SDS011;69423;47.608;19.366;2023-06-14T01:31:19;14.67;;;13.77;;
80115;SDS011;69423;47.608;19.366;2023-06-14T01:31:54;14.10;;;13.37;;
80115;SDS011;69423;47.608;19.366;2023-06-14T01:32:28;14.23;;;13.47;;
80115;SDS011;69423;47.608;19.366;2023-06-14T01:33:00;13.53;;;12.90;;
80115;SDS011;69423;47.608;19.366;2023-06-14T01:33:32;15.33;;;14.43;;
80115;SDS011;69423;47.608;19.366;2023-06-14T01:34:05;14.33;;;13.47;;
80115;SDS011;69423;47.608;19.366;2023-06-14T01:34:36;14.27;;;13.33;;
80115;SDS011;69423;47.608;19.366;2023-06-14T01:35:07;13.67;;;12.77;;
80115;SDS011;69423;47.608;19.366;2023-06-14T01:35:40;14.20;;;13.17;;
80115;SDS011;69423;47.608;19.366;2023-06-14T01:36:13;14.57;;;13.70;;
80115;SDS011;69423;47.608;19.366;2023-06-14T01:36:46;14.43;;;13.67;;
80115;SDS011;69423;47.608;19.366;2023-06-14T01:37:19;14.50;;;13.77;;
80115;SDS011;69423;47.608;19.366;2023-06-14T01:37:52;14.30;;;13.50;;
80115;SDS011;69423;47.608;19.366;2023-06-14T01:38:25;14.57;;;13.70;;
80115;SDS011;69423;47.608;19.366;2023-06-14T01:38:58;13.70;;;12.93;;
80115;SDS011;69423;47.608;19.366;2023-06-14T01:39:30;13.37;;;12.77;;
80115;SDS011;69423;47.608;19.366;2023-06-14T01:40:02;14.10;;;13.47;;
80115;SDS011;69423;47.608;19.366;2023-06-14T01:40:36;14.07;;;13.30;;
80115;SDS011;69423;47.608;19.366;2023-06-14T01:41:09;14.27;;;13.50;;
80115;SDS011;69423;47.608;19.366;2023-06-14T01:41:41;13.27;;;12.50;;
80115;SDS011;69423;47.608;19.366;2023-06-14T01:42:14;13.37;;;12.70;;
80115;SDS011;69423;47.608;19.366;2023-06-14T01:42:46;14.17;;;13.43;;
80115;SDS011;69423;47.608;19.366;2023-06-14T01:43:19;14.00;;;13.23;;
80115;SDS011;69423;47.608;19.366;2023-06-14T01:43:51;14.33;;;13.50;;
80115;SDS011;69423;47.608;19.366;2023-06-14T01:44:25;14.53;;;13.57;;
80115;SDS011;69423;47.608;19.366;2023-06-14T01:44:59;14.63;;;13.57;;
80115;SDS011;69423;47.608;19.366;2023-06-14T01:45:32;15.23;;;14.07;;
80115;SDS011;69423;47.608;19.366;2023-06-14T01:46:05;15.43;;;14.23;;
80115;SDS011;69423;47.608;19.366;2023-06-14T01:46:40;15.17;;;14.10;;
80115;SDS011;69423;47.608;19.366;2023-06-14T01:47:12;14.87;;;14.07;;
80115;SDS011;69423;47.608;19.366;2023-06-14T01:47:45;13.83;;;13.27;;
80115;SDS011;69423;47.608;19.366;2023-06-14T01:48:18;13.60;;;13.07;;
80115;SDS011;69423;47.608;19.366;2023-06-14T01:48:51;13.20;;;12.53;;
80115;SDS011;69423;47.608;19.366;2023-06-14T01:49:22;14.00;;;13.20;;
80115;SDS011;69423;47.608;19.366;2023-06-14T01:49:53;14.67;;;13.67;;
80115;SDS011;69423;47.608;19.366;2023-06-14T01:50:27;14.50;;;13.53;;
80115;SDS011;69423;47.608;19.366;2023-06-14T01:50:59;14.03;;;13.10;;
80115;SDS011;69423;47.608;19.366;2023-06-14T01:51:30;14.87;;;13.83;;
80115;SDS011;69423;47.608;19.366;2023-06-14T01:52:01;14.83;;;14.07;;
80115;SDS011;69423;47.608;19.366;2023-06-14T01:52:32;14.40;;;13.77;;
80115;SDS011;69423;47.608;19.366;2023-06-14T01:53:06;13.17;;;12.60;;
80115;SDS011;69423;47.608;19.366;2023-06-14T01:53:38;13.83;;;13.23;;
80115;SDS011;69423;47.608;19.366;2023-06-14T01:54:10;14.33;;;13.63;;
80115;SDS011;69423;47.608;19.366;2023-06-14T01:54:41;15.07;;;14.37;;
80115;SDS011;69423;47.608;19.366;2023-06-14T01:55:13;13.80;;;13.20;;
80115;SDS011;69423;47.608;19.366;2023-06-14T01:55:44;14.03;;;13.37;;
80115;SDS011;69423;47.608;19.366;2023-06-14T01:56:18;13.97;;;13.27;;
80115;SDS011;69423;47.608;19.366;2023-06-14T01:56:50;14.67;;;13.90;;
80115;SDS011;69423;47.608;19.366;2023-06-14T01:57:21;14.43;;;13.67;;
80115;SDS011;69423;47.608;19.366;2023-06-14T01:57:54;14.07;;;13.30;;
80115;SDS011;69423;47.608;19.366;2023-06-14T01:58:25;14.70;;;13.80;;
80115;SDS011;69423;47.608;19.366;2023-06-14T01:58:56;15.07;;;14.13;;
80115;SDS011;69423;47.608;19.366;2023-06-14T01:59:27;14.77;;;13.83;;
80115;SDS011;69423;47.608;19.366;2023-06-14T01:59:58;15.10;;;14.27;;
80115;SDS011;69423;47.608;19.366;2023-06-14T02:00:29;14.50;;;13.63;;
80115;SDS011;69423;47.608;19.366;2023-06-14T02:01:00;14.20;;;13.37;;
80115;SDS011;69423;47.608;19.366;2023-06-14T02:01:32;13.80;;;13.10;;
80115;SDS011;69423;47.608;19.366;2023-06-14T02:02:04;13.80;;;13.17;;
80115;SDS011;69423;47.608;19.366;2023-06-14T02:02:36;13.97;;;13.27;;
80115;SDS011;69423;47.608;19.366;2023-06-14T02:03:07;14.43;;;13.63;;
80115;SDS011;69423;47.608;19.366;2023-06-14T02:03:38;14.13;;;13.20;;
80115;SDS011;69423;47.608;19.366;2023-06-14T02:04:09;14.77;;;13.73;;
80115;SDS011;69423;47.608;19.366;2023-06-14T02:04:41;14.97;;;13.87;;
80115;SDS011;69423;47.608;19.366;2023-06-14T02:05:12;15.37;;;14.37;;
80115;SDS011;69423;47.608;19.366;2023-06-14T02:05:43;14.43;;;13.67;;
80115;SDS011;69423;47.608;19.366;2023-06-14T02:06:14;14.13;;;13.43;;
80115;SDS011;69423;47.608;19.366;2023-06-14T02:06:46;14.43;;;13.57;;
80115;SDS011;69423;47.608;19.366;2023-06-14T02:07:17;14.30;;;13.37;;
80115;SDS011;69423;47.608;19.366;2023-06-14T02:07:48;14.70;;;13.67;;
80115;SDS011;69423;47.608;19.366;2023-06-14T02:08:19;14.63;;;13.60;;
80115;SDS011;69423;47.608;19.366;2023-06-14T02:08:50;14.77;;;13.73;;
80115;SDS011;69423;47.608;19.366;2023-06-14T02:09:21;13.23;;;12.50;;
80115;SDS011;69423;47.608;19.366;2023-06-14T02:09:52;12.93;;;12.33;;
80115;SDS011;69423;47.608;19.366;2023-06-14T02:10:23;14.17;;;13.47;;
80115;SDS011;69423;47.608;19.366;2023-06-14T02:10:54;14.07;;;13.40;;
80115;SDS011;69423;47.608;19.366;2023-06-14T02:11:25;14.17;;;13.47;;
80115;SDS011;69423;47.608;19.366;2023-06-14T02:11:57;14.50;;;13.63;;
80115;SDS011;69423;47.608;19.366;2023-06-14T02:12:28;13.93;;;13.10;;
80115;SDS011;69423;47.608;19.366;2023-06-14T02:12:59;15.30;;;14.20;;
80115;SDS011;69423;47.608;19.366;2023-06-14T02:13:31;14.77;;;13.77;;
80115;SDS011;69423;47.608;19.366;2023-06-14T02:14:02;13.63;;;12.83;;
80115;SDS011;69423;47.608;19.366;2023-06-14T02:14:33;14.03;;;13.17;;
80115;SDS011;69423;47.608;19.366;2023-06-14T02:15:04;14.67;;;13.73;;
80115;SDS011;69423;47.608;19.366;2023-06-14T02:15:37;14.27;;;13.40;;
80115;SDS011;69423;47.608;19.366;2023-06-14T02:16:08;13.93;;;13.17;;
80115;SDS011;69423;47.608;19.366;2023-06-14T02:16:40;14.47;;;13.67;;
80115;SDS011;69423;47.608;19.366;2023-06-14T02:17:11;14.33;;;13.43;;
80115;SDS011;69423;47.608;19.366;2023-06-14T02:17:42;15.17;;;14.20;;
80115;SDS011;69423;47.608;19.366;2023-06-14T02:18:14;14.63;;;13.73;;
80115;SDS011;69423;47.608;19.366;2023-06-14T02:18:45;14.30;;;13.37;;
80115;SDS011;69423;47.608;19.366;2023-06-14T02:19:16;14.40;;;13.37;;
80115;SDS011;69423;47.608;19.366;2023-06-14T02:19:48;14.97;;;13.60;;
80115;SDS011;69423;47.608;19.366;2023-06-14T02:20:19;16.37;;;14.70;;
80115;SDS011;69423;47.608;19.366;2023-06-14T02:20:50;16.10;;;14.53;;
80115;SDS011;69423;47.608;19.366;2023-06-14T02:21:21;15.20;;;14.07;;
80115;SDS011;69423;47.608;19.366;2023-06-14T02:21:52;14.23;;;13.30;;
80115;SDS011;69423;47.608;19.366;2023-06-14T02:22:23;14.07;;;13.17;;
80115;SDS011;69423;47.608;19.366;2023-06-14T02:22:55;14.83;;;13.80;;
80115;SDS011;69423;47.608;19.366;2023-06-14T02:23:26;15.00;;;13.87;;
80115;SDS011;69423;47.608;19.366;2023-06-14T02:23:57;14.80;;;13.80;;
80115;SDS011;69423;47.608;19.366;2023-06-14T02:24:28;15.30;;;14.03;;
80115;SDS011;69423;47.608;19.366;2023-06-14T02:25:00;14.60;;;13.40;;
80115;SDS011;69423;47.608;19.366;2023-06-14T02:25:31;14.27;;;13.23;;
80115;SDS011;69423;47.608;19.366;2023-06-14T02:26:02;14.93;;;13.87;;
80115;SDS011;69423;47.608;19.366;2023-06-14T02:26:34;14.23;;;13.37;;
80115;SDS011;69423;47.608;19.366;2023-06-14T02:27:05;14.27;;;13.47;;
80115;SDS011;69423;47.608;19.366;2023-06-14T02:27:37;14.13;;;13.43;;
80115;SDS011;69423;47.608;19.366;2023-06-14T02:28:08;13.37;;;12.80;;
80115;SDS011;69423;47.608;19.366;2023-06-14T02:28:39;13.77;;;13.17;;
80115;SDS011;69423;47.608;19.366;2023-06-14T02:29:10;13.70;;;13.07;;
80115;SDS011;69423;47.608;19.366;2023-06-14T02:29:43;13.73;;;13.10;;
80115;SDS011;69423;47.608;19.366;2023-06-14T02:30:14;13.30;;;12.73;;
80115;SDS011;69423;47.608;19.366;2023-06-14T02:30:46;12.93;;;12.27;;
80115;SDS011;69423;47.608;19.366;2023-06-14T02:31:17;13.67;;;12.90;;
80115;SDS011;69423;47.608;19.366;2023-06-14T02:31:48;14.47;;;13.47;;
80115;SDS011;69423;47.608;19.366;2023-06-14T02:32:20;14.97;;;13.73;;
80115;SDS011;69423;47.608;19.366;2023-06-14T02:32:51;15.93;;;14.60;;
80115;SDS011;69423;47.608;19.366;2023-06-14T02:33:23;15.20;;;14.17;;
80115;SDS011;69423;47.608;19.366;2023-06-14T02:33:55;14.43;;;13.63;;
80115;SDS011;69423;47.608;19.366;2023-06-14T02:34:27;14.20;;;13.40;;
80115;SDS011;69423;47.608;19.366;2023-06-14T02:34:58;13.47;;;12.73;;
80115;SDS011;69423;47.608;19.366;2023-06-14T02:35:29;13.83;;;13.03;;
80115;SDS011;69423;47.608;19.366;2023-06-14T02:36:01;13.73;;;13.13;;
80115;SDS011;69423;47.608;19.366;2023-06-14T02:36:33;13.90;;;13.30;;
80115;SDS011;69423;47.608;19.366;2023-06-14T02:37:04;14.80;;;14.03;;
80115;SDS011;69423;47.608;19.366;2023-06-14T02:37:35;14.83;;;14.07;;
80115;SDS011;69423;47.608;19.366;2023-06-14T02:38:06;13.70;;;13.20;;
80115;SDS011;69423;47.608;19.366;2023-06-14T02:38:37;13.27;;;12.80;;
80115;SDS011;69423;47.608;19.366;2023-06-14T02:39:09;13.57;;;13.03;;
80115;SDS011;69423;47.608;19.366;2023-06-14T02:39:40;14.07;;;13.33;;
80115;SDS011;69423;47.608;19.366;2023-06-14T02:40:12;13.70;;;12.97;;
80115;SDS011;69423;47.608;19.366;2023-06-14T02:40:43;13.80;;;13.20;;
80115;SDS011;69423;47.608;19.366;2023-06-14T02:41:14;13.93;;;13.23;;
80115;SDS011;69423;47.608;19.366;2023-06-14T02:41:45;14.27;;;13.63;;
80115;SDS011;69423;47.608;19.366;2023-06-14T02:42:16;13.60;;;13.03;;
80115;SDS011;69423;47.608;19.366;2023-06-14T02:42:47;14.23;;;13.47;;
80115;SDS011;69423;47.608;19.366;2023-06-14T02:43:18;14.23;;;13.37;;
80115;SDS011;69423;47.608;19.366;2023-06-14T02:43:49;14.20;;;13.30;;
80115;SDS011;69423;47.608;19.366;2023-06-14T02:44:24;14.17;;;13.33;;
80115;SDS011;69423;47.608;19.366;2023-06-14T02:44:57;13.70;;;13.07;;
80115;SDS011;69423;47.608;19.366;2023-06-14T02:45:28;13.70;;;13.00;;
80115;SDS011;69423;47.608;19.366;2023-06-14T02:45:59;13.33;;;12.67;;
80115;SDS011;69423;47.608;19.366;2023-06-14T02:46:30;13.33;;;12.60;;
80115;SDS011;69423;47.608;19.366;2023-06-14T02:47:01;13.87;;;13.00;;
80115;SDS011;69423;47.608;19.366;2023-06-14T02:47:32;13.27;;;12.57;;
80115;SDS011;69423;47.608;19.366;2023-06-14T02:48:03;12.97;;;12.30;;
80115;SDS011;69423;47.608;19.366;2023-06-14T02:48:34;13.63;;;12.87;;
80115;SDS011;69423;47.608;19.366;2023-06-14T02:49:05;14.53;;;13.43;;
80115;SDS011;69423;47.608;19.366;2023-06-14T02:49:36;15.03;;;13.73;;
80115;SDS011;69423;47.608;19.366;2023-06-14T02:50:08;14.60;;;13.30;;
80115;SDS011;69423;47.608;19.366;2023-06-14T02:50:39;13.90;;;12.80;;
80115;SDS011;69423;47.608;19.366;2023-06-14T02:51:10;13.73;;;12.63;;
80115;SDS011;69423;47.608;19.366;2023-06-14T02:51:43;14.20;;;13.23;;
80115;SDS011;69423;47.608;19.366;2023-06-14T02:52:14;14.23;;;13.27;;
80115;SDS011;69423;47.608;19.366;2023-06-14T02:52:45;13.70;;;12.93;;
80115;SDS011;69423;47.608;19.366;2023-06-14T02:53:18;12.87;;;12.20;;
80115;SDS011;69423;47.608;19.366;2023-06-14T02:53:49;13.80;;;13.00;;
80115;SDS011;69423;47.608;19.366;2023-06-14T02:54:20;14.37;;;13.47;;
80115;SDS011;69423;47.608;19.366;2023-06-14T02:54:51;13.90;;;13.10;;
80115;SDS011;69423;47.608;19.366;2023-06-14T02:55:22;14.03;;;13.27;;
80115;SDS011;69423;47.608;19.366;2023-06-14T02:55:53;13.23;;;12.53;;
80115;SDS011;69423;47.608;19.366;2023-06-14T02:56:25;13.83;;;13.10;;
80115;SDS011;69423;47.608;19.366;2023-06-14T02:56:58;14.27;;;13.60;;
80115;SDS011;69423;47.608;19.366;2023-06-14T02:57:29;13.53;;;13.00;;
80115;SDS011;69423;47.608;19.366;2023-06-14T02:58:00;13.33;;;12.83;;
80115;SDS011;69423;47.608;19.366;2023-06-14T02:58:31;14.00;;;13.30;;
80115;SDS011;69423;47.608;19.366;2023-06-14T02:59:03;13.57;;;12.77;;
80115;SDS011;69423;47.608;19.366;2023-06-14T02:59:34;12.70;;;11.87;;
80115;SDS011;69423;47.608;19.366;2023-06-14T03:00:06;13.40;;;12.50;;
80115;SDS011;69423;47.608;19.366;2023-06-14T03:00:40;14.23;;;13.20;;
80115;SDS011;69423;47.608;19.366;2023-06-14T03:01:11;13.80;;;12.87;;
80115;SDS011;69423;47.608;19.366;2023-06-14T03:01:43;13.47;;;12.60;;
80115;SDS011;69423;47.608;19.366;2023-06-14T03:02:14;13.47;;;12.70;;
80115;SDS011;69423;47.608;19.366;2023-06-14T03:02:45;14.17;;;13.40;;
80115;SDS011;69423;47.608;19.366;2023-06-14T03:03:17;13.33;;;12.70;;
80115;SDS011;69423;47.608;19.366;2023-06-14T03:03:48;13.03;;;12.40;;
80115;SDS011;69423;47.608;19.366;2023-06-14T03:04:19;12.97;;;12.33;;
80115;SDS011;69423;47.608;19.366;2023-06-14T03:04:51;13.80;;;12.97;;
80115;SDS011;69423;47.608;19.366;2023-06-14T03:05:22;13.37;;;12.50;;
80115;SDS011;69423;47.608;19.366;2023-06-14T03:05:54;12.93;;;12.10;;
80115;SDS011;69423;47.608;19.366;2023-06-14T03:06:25;13.60;;;12.80;;
80115;SDS011;69423;47.608;19.366;2023-06-14T03:06:56;13.33;;;12.40;;
80115;SDS011;69423;47.608;19.366;2023-06-14T03:07:28;13.27;;;12.33;;